createdAt,value
2022-08-23T00:00:42.496Z,72.30
2022-08-23T00:01:41.503Z,71.70
2022-08-23T00:02:41.544Z,73.14
2022-08-23T00:03:41.461Z,72.84
2022-08-23T00:04:50.861Z,72.03
2022-08-23T00:05:42.445Z,72.13
2022-08-23T00:06:41.446Z,73.04
2022-08-23T00:07:41.424Z,72.33
2022-08-23T00:08:44.078Z,71.83
2022-08-23T00:09:42.393Z,71.73
2022-08-23T00:10:41.383Z,72.13
2022-08-23T00:11:41.379Z,72.94
2022-08-23T00:12:41.379Z,72.64
2022-08-23T00:13:47.333Z,72.74
2022-08-23T00:14:42.335Z,72.03
2022-08-23T00:15:41.326Z,72.13
2022-08-23T00:16:41.320Z,72.13
2022-08-23T00:17:41.333Z,72.24
2022-08-23T00:18:41.304Z,71.94
2022-08-23T00:19:42.282Z,71.33
2022-08-23T00:20:41.267Z,71.73
2022-08-23T00:21:41.288Z,71.73
2022-08-23T00:22:41.248Z,72.30
2022-08-23T00:23:41.247Z,72.20
2022-08-23T00:24:41.229Z,71.83
2022-08-23T00:25:41.216Z,71.83
2022-08-23T00:26:41.225Z,71.73
2022-08-23T00:27:41.193Z,71.43
2022-08-23T00:28:41.185Z,72.24
2022-08-23T00:29:41.193Z,72.03
2022-08-23T00:30:41.165Z,73.74
2022-08-23T00:31:41.162Z,74.74
2022-08-23T00:32:41.139Z,74.15
2022-08-23T00:33:41.126Z,73.58
2022-08-23T00:34:41.134Z,74.98
2022-08-23T00:35:41.105Z,73.68
2022-08-23T00:36:41.091Z,73.38
2022-08-23T00:37:41.102Z,72.87
2022-08-23T00:38:41.091Z,72.57
2022-08-23T00:39:41.149Z,73.18
2022-08-23T00:40:41.044Z,72.37
2022-08-23T00:41:41.036Z,72.67
2022-08-23T00:42:41.045Z,73.47
2022-08-23T00:43:41.016Z,73.98
2022-08-23T00:44:41.022Z,74.48
2022-08-23T00:45:40.990Z,75.38
2022-08-23T00:46:40.980Z,75.42
2022-08-23T00:47:40.969Z,74.58
2022-08-23T00:48:40.978Z,74.92
2022-08-23T00:49:40.949Z,75.52
2022-08-23T00:50:41.119Z,76.69
2022-08-23T00:51:52.351Z,76.53
2022-08-23T00:52:41.920Z,76.63
2022-08-23T00:53:40.902Z,76.53
2022-08-23T00:54:40.919Z,75.92
2022-08-23T00:55:40.906Z,76.73
2022-08-23T00:56:40.869Z,77.53
2022-08-23T00:57:40.930Z,77.67
2022-08-23T00:58:41.846Z,76.46
2022-08-23T00:59:41.086Z,76.93
2022-08-23T01:00:40.824Z,75.92
2022-08-23T01:01:40.836Z,76.73
2022-08-23T01:02:40.799Z,76.73
2022-08-23T01:03:40.813Z,76.73
2022-08-23T01:04:40.799Z,77.63
2022-08-23T01:05:40.795Z,77.43
2022-08-23T01:06:40.756Z,77.67
2022-08-23T01:07:40.763Z,77.33
2022-08-23T01:08:40.740Z,76.76
2022-08-23T01:09:40.728Z,77.17
2022-08-23T01:10:40.763Z,76.87
2022-08-23T01:11:40.708Z,77.87
2022-08-23T01:12:40.689Z,78.17
2022-08-23T01:13:40.682Z,75.66
2022-08-23T01:14:40.691Z,76.87
2022-08-23T01:15:40.663Z,76.46
2022-08-23T01:16:40.647Z,76.87
2022-08-23T01:17:40.637Z,77.27
2022-08-23T01:18:40.626Z,77.07
2022-08-23T01:19:40.633Z,78.17
2022-08-23T01:20:40.603Z,77.81
2022-08-23T01:21:41.296Z,77.70
2022-08-23T01:22:40.581Z,77.67
2022-08-23T01:23:40.651Z,78.07
2022-08-23T01:25:07.815Z,78.01
2022-08-23T01:25:41.552Z,77.20
2022-08-23T01:26:40.536Z,77.00
2022-08-23T01:27:40.528Z,76.40
2022-08-23T01:28:40.812Z,77.20
2022-08-23T01:29:41.500Z,76.70
2022-08-23T01:30:40.498Z,76.60
2022-08-23T01:31:40.483Z,76.80
2022-08-23T01:32:40.499Z,77.81
2022-08-23T01:33:40.460Z,77.95
2022-08-23T01:34:51.612Z,78.05
2022-08-23T01:35:41.463Z,78.65
2022-08-23T01:36:40.426Z,78.85
2022-08-23T01:37:40.416Z,78.65
2022-08-23T01:38:40.425Z,79.46
2022-08-23T01:39:40.429Z,79.80
2022-08-23T01:40:40.394Z,80.30
2022-08-23T01:41:40.403Z,80.20
2022-08-23T01:42:40.357Z,80.20
2022-08-23T01:43:40.352Z,80.00
2022-08-23T01:44:40.341Z,80.30
2022-08-23T01:45:40.331Z,80.80
2022-08-23T01:46:40.344Z,80.30
2022-08-23T01:47:40.305Z,79.60
2022-08-23T01:48:40.294Z,78.59
2022-08-23T01:49:40.282Z,78.59
2022-08-23T01:50:40.359Z,77.51
2022-08-23T01:51:40.286Z,78.12
2022-08-23T01:52:47.081Z,78.52
2022-08-23T01:53:41.233Z,77.82
2022-08-23T01:54:40.221Z,78.08
2022-08-23T01:55:40.216Z,77.78
2022-08-23T01:56:40.227Z,77.58
2022-08-23T01:57:40.204Z,78.32
2022-08-23T01:58:40.181Z,77.17
2022-08-23T01:59:40.177Z,77.78
2022-08-23T02:00:40.164Z,77.68
2022-08-23T02:01:40.229Z,76.77
2022-08-23T02:02:40.146Z,76.87
2022-08-23T02:03:40.125Z,77.17
2022-08-23T02:04:40.110Z,76.27
2022-08-23T02:05:40.180Z,75.96
2022-08-23T02:06:40.093Z,75.87
2022-08-23T02:07:40.110Z,76.84
2022-08-23T02:08:40.089Z,75.87
2022-08-23T02:09:40.064Z,75.96
2022-08-23T02:10:40.075Z,75.93
2022-08-23T02:11:40.064Z,76.97
2022-08-23T02:12:40.041Z,76.84
2022-08-23T02:13:40.053Z,77.38
2022-08-23T02:14:40.710Z,77.17
2022-08-23T02:15:39.996Z,76.57
2022-08-23T02:16:40.034Z,75.83
2022-08-23T02:17:39.971Z,76.17
2022-08-23T02:18:39.958Z,75.53
2022-08-23T02:19:39.943Z,76.34
2022-08-23T02:20:39.958Z,74.93
2022-08-23T02:21:39.946Z,75.53
2022-08-23T02:22:39.912Z,75.33
2022-08-23T02:23:39.902Z,76.14
2022-08-23T02:24:39.893Z,76.03
2022-08-23T02:25:39.888Z,75.93
2022-08-23T02:26:39.870Z,75.83
2022-08-23T02:27:44.003Z,75.93
2022-08-23T02:28:39.849Z,76.43
2022-08-23T02:29:39.924Z,76.74
2022-08-23T02:30:40.087Z,77.24
2022-08-23T02:31:39.834Z,77.04
2022-08-23T02:32:39.802Z,76.57
2022-08-23T02:34:51.313Z,77.55
2022-08-23T02:35:50.594Z,77.38
2022-08-23T02:36:49.567Z,77.38
2022-08-23T02:37:49.553Z,78.08
2022-08-23T02:38:49.535Z,77.68
2022-08-23T02:39:49.597Z,77.88
2022-08-23T02:40:52.741Z,78.08
2022-08-23T02:41:50.532Z,78.19
2022-08-23T02:42:49.494Z,78.89
2022-08-23T02:43:49.480Z,78.52
2022-08-23T02:44:49.473Z,78.89
2022-08-23T02:45:49.464Z,78.99
2022-08-23T02:46:49.474Z,78.79
2022-08-23T02:47:49.440Z,79.23
2022-08-23T02:48:49.426Z,79.53
2022-08-23T02:49:49.431Z,79.33
2022-08-23T02:50:49.400Z,80.33
2022-08-23T02:51:49.413Z,79.83
2022-08-23T02:52:49.383Z,80.24
2022-08-23T02:53:49.371Z,79.23
2022-08-23T02:54:49.381Z,80.24
2022-08-23T02:55:49.350Z,80.04
2022-08-23T02:56:49.360Z,79.73
2022-08-23T02:57:49.326Z,80.38
2022-08-23T02:58:54.477Z,79.97
2022-08-23T02:59:50.316Z,80.27
2022-08-23T03:00:49.294Z,79.63
2022-08-23T03:01:49.305Z,79.97
2022-08-23T03:02:49.273Z,80.04
2022-08-23T03:03:49.279Z,79.67
2022-08-23T03:04:49.247Z,79.16
2022-08-23T03:05:49.230Z,79.03
2022-08-23T03:06:49.250Z,79.87
2022-08-23T03:07:49.208Z,80.47
2022-08-23T03:08:49.201Z,80.27
2022-08-23T03:09:49.193Z,79.57
2022-08-23T03:10:49.211Z,79.03
2022-08-23T03:11:49.170Z,79.13
2022-08-23T03:12:49.165Z,79.73
2022-08-23T03:13:49.145Z,79.13
2022-08-23T03:14:49.139Z,80.07
2022-08-23T03:15:49.285Z,80.27
2022-08-23T03:16:49.119Z,80.07
2022-08-23T03:17:49.274Z,80.18
2022-08-23T03:18:49.086Z,80.13
2022-08-23T03:19:49.076Z,79.93
2022-08-23T03:20:49.064Z,80.38
2022-08-23T03:21:49.051Z,80.04
2022-08-23T03:22:51.664Z,81.24
2022-08-23T03:23:50.031Z,80.88
2022-08-23T03:24:49.019Z,80.68
2022-08-23T03:25:49.009Z,81.08
2022-08-23T03:26:49.002Z,81.08
2022-08-23T03:27:49.110Z,80.98
2022-08-23T03:28:48.974Z,80.27
2022-08-23T03:29:48.996Z,80.78
2022-08-23T03:30:49.051Z,80.47
2022-08-23T03:31:48.906Z,80.58
2022-08-23T03:32:49.450Z,80.88
2022-08-23T03:33:48.911Z,81.79
2022-08-23T03:34:48.874Z,81.28
2022-08-23T03:35:48.860Z,80.38
2022-08-23T03:36:48.851Z,80.78
2022-08-23T03:37:51.361Z,81.38
2022-08-23T03:38:49.841Z,80.78
2022-08-23T03:39:48.852Z,80.98
2022-08-23T03:40:48.839Z,80.78
2022-08-23T03:41:48.795Z,80.98
2022-08-23T03:42:48.785Z,80.18
2022-08-23T03:43:48.826Z,80.78
2022-08-23T03:44:48.760Z,80.38
2022-08-23T03:45:49.766Z,80.38
2022-08-23T03:46:48.761Z,80.78
2022-08-23T03:47:48.749Z,80.88
2022-08-23T03:48:48.716Z,80.18
2022-08-23T03:49:48.727Z,80.27
2022-08-23T03:50:48.698Z,80.38
2022-08-23T03:51:48.687Z,80.27
2022-08-23T03:52:48.678Z,79.97
2022-08-23T03:53:48.657Z,79.67
2022-08-23T03:54:48.671Z,78.96
2022-08-23T03:55:48.637Z,78.22
2022-08-23T03:56:48.652Z,78.46
2022-08-23T03:57:48.642Z,78.96
2022-08-23T03:58:48.607Z,79.87
2022-08-23T03:59:48.592Z,78.66
2022-08-23T04:00:48.589Z,78.63
2022-08-23T04:01:48.685Z,78.86
2022-08-23T04:02:48.561Z,78.83
2022-08-23T04:03:48.548Z,78.46
2022-08-23T04:04:48.566Z,78.36
2022-08-23T04:05:48.523Z,78.72
2022-08-23T04:06:48.612Z,78.63
2022-08-23T04:07:48.507Z,78.32
2022-08-23T04:08:48.516Z,78.12
2022-08-23T04:09:50.902Z,78.52
2022-08-23T04:10:49.470Z,78.92
2022-08-23T04:11:48.461Z,78.72
2022-08-23T04:12:48.447Z,77.62
2022-08-23T04:13:48.464Z,77.68
2022-08-23T04:14:48.427Z,77.38
2022-08-23T04:15:48.419Z,76.87
2022-08-23T04:16:48.418Z,77.17
2022-08-23T04:17:48.396Z,76.77
2022-08-23T04:18:48.401Z,76.67
2022-08-23T04:19:48.365Z,76.67
2022-08-23T04:20:48.356Z,75.87
2022-08-23T04:21:48.356Z,76.17
2022-08-23T04:22:48.331Z,75.46
2022-08-23T04:23:48.339Z,75.96
2022-08-23T04:24:48.310Z,75.96
2022-08-23T04:25:48.316Z,76.37
2022-08-23T04:26:49.545Z,76.07
2022-08-23T04:27:48.280Z,76.87
2022-08-23T04:28:48.263Z,75.96
2022-08-23T04:29:48.274Z,76.03
2022-08-23T04:30:48.246Z,75.83
2022-08-23T04:31:48.964Z,75.73
2022-08-23T04:32:48.224Z,75.43
2022-08-23T04:33:52.449Z,75.53
2022-08-23T04:34:51.400Z,75.53
2022-08-23T04:35:48.204Z,75.33
2022-08-23T04:36:51.813Z,74.93
2022-08-23T04:37:49.162Z,75.33
2022-08-23T04:38:48.154Z,75.33
2022-08-23T04:39:51.807Z,75.02
2022-08-23T04:40:49.126Z,74.49
2022-08-23T04:41:48.125Z,74.69
2022-08-23T04:42:48.108Z,74.38
2022-08-23T04:43:48.120Z,75.59
2022-08-23T04:44:48.099Z,75.39
2022-08-23T04:45:48.107Z,74.99
2022-08-23T04:46:48.064Z,74.99
2022-08-23T04:47:48.053Z,74.29
2022-08-23T04:48:48.052Z,74.69
2022-08-23T04:49:48.028Z,73.88
2022-08-23T04:50:48.043Z,73.68
2022-08-23T04:51:54.014Z,73.28
2022-08-23T04:52:48.994Z,72.74
2022-08-23T04:53:47.980Z,73.44
2022-08-23T04:54:47.971Z,74.65
2022-08-23T04:55:47.986Z,73.75
2022-08-23T04:56:51.660Z,73.65
2022-08-23T04:57:47.941Z,73.44
2022-08-23T04:58:47.943Z,72.94
2022-08-23T04:59:47.917Z,72.74
2022-08-23T05:00:51.272Z,72.61
2022-08-23T05:01:47.921Z,72.50
2022-08-23T05:02:47.886Z,72.61
2022-08-23T05:03:47.914Z,72.71
2022-08-23T05:04:47.857Z,72.50
2022-08-23T05:05:47.850Z,73.41
2022-08-23T05:06:47.837Z,72.30
2022-08-23T05:07:47.829Z,72.91
2022-08-23T05:08:47.835Z,73.31
2022-08-23T05:09:47.801Z,74.58
2022-08-23T05:10:47.799Z,72.37
2022-08-23T05:11:47.804Z,72.87
2022-08-23T05:12:47.793Z,72.37
2022-08-23T05:13:47.760Z,72.97
2022-08-23T05:14:47.860Z,72.87
2022-08-23T05:15:47.737Z,71.97
2022-08-23T05:16:47.746Z,72.27
2022-08-23T05:17:47.710Z,71.67
2022-08-23T05:18:47.703Z,72.13
2022-08-23T05:19:47.711Z,74.55
2022-08-23T05:20:47.678Z,72.37
2022-08-23T05:21:47.669Z,71.63
2022-08-23T05:22:47.656Z,70.63
2022-08-23T05:23:50.878Z,71.03
2022-08-23T05:24:48.630Z,71.13
2022-08-23T05:25:47.622Z,71.03
2022-08-23T05:26:47.616Z,70.32
2022-08-23T05:27:47.612Z,70.59
2022-08-23T05:28:47.631Z,70.89
2022-08-23T05:29:47.583Z,69.39
2022-08-23T05:30:49.472Z,69.79
2022-08-23T05:31:49.766Z,70.39
2022-08-23T05:32:47.549Z,70.59
2022-08-23T05:33:47.555Z,70.39
2022-08-23T05:34:47.525Z,69.59
2022-08-23T05:35:47.532Z,70.39
2022-08-23T05:36:48.097Z,68.88
2022-08-23T05:37:48.762Z,69.35
2022-08-23T05:38:47.496Z,70.66
2022-08-23T05:39:47.499Z,69.89
2022-08-23T05:40:47.449Z,70.16
2022-08-23T05:41:48.439Z,69.76
2022-08-23T05:42:47.427Z,69.32
2022-08-23T05:43:47.443Z,70.46
2022-08-23T05:44:47.414Z,71.13
2022-08-23T05:45:47.422Z,71.43
2022-08-23T05:46:47.388Z,68.08
2022-08-23T05:47:47.382Z,70.32
2022-08-23T05:48:47.392Z,66.99
2022-08-23T05:49:47.353Z,67.69
2022-08-23T05:50:47.338Z,67.99
2022-08-23T05:51:47.329Z,66.88
2022-08-23T05:52:50.927Z,67.99
2022-08-23T05:53:47.332Z,67.85
2022-08-23T05:54:47.292Z,68.26
2022-08-23T05:55:47.288Z,67.25
2022-08-23T05:56:47.272Z,68.02
2022-08-23T05:57:47.265Z,66.12
2022-08-23T05:58:47.309Z,65.89
2022-08-23T05:59:47.239Z,67.16
2022-08-23T06:00:47.264Z,65.22
2022-08-23T06:01:47.220Z,64.19
2022-08-23T06:02:47.207Z,62.19
2022-08-23T06:03:47.223Z,59.86
2022-08-23T06:04:47.180Z,61.87
2022-08-23T06:05:47.176Z,61.04
2022-08-23T06:06:47.160Z,58.54
2022-08-23T06:07:47.174Z,59.83
2022-08-23T06:08:47.136Z,61.73
2022-08-23T06:09:47.194Z,59.06
2022-08-23T06:10:47.122Z,60.06
2022-08-23T06:11:47.127Z,60.63
2022-08-23T06:12:47.093Z,60.93
2022-08-23T06:13:47.124Z,58.64
2022-08-23T06:14:47.069Z,59.53
2022-08-23T06:15:47.088Z,60.03
2022-08-23T06:16:47.045Z,59.23
2022-08-23T06:17:47.044Z,59.47
2022-08-23T06:18:47.035Z,58.94
2022-08-23T06:19:47.016Z,57.93
2022-08-23T06:20:47.083Z,56.57
2022-08-23T06:21:47.024Z,57.69
2022-08-23T06:22:46.983Z,58.09
2022-08-23T06:23:46.999Z,58.99
2022-08-23T06:24:46.956Z,57.67
2022-08-23T06:25:46.974Z,57.46
2022-08-23T06:26:46.970Z,59.06
2022-08-23T06:27:47.048Z,58.64
2022-08-23T06:28:50.953Z,56.74
2022-08-23T06:29:46.901Z,56.46
2022-08-23T06:30:46.959Z,58.34
2022-08-23T06:31:46.913Z,56.34
2022-08-23T06:32:47.007Z,58.11
2022-08-23T06:33:46.920Z,56.44
2022-08-23T06:34:46.848Z,56.54
2022-08-23T06:35:46.999Z,56.81
2022-08-23T06:36:46.821Z,58.41
2022-08-23T06:37:46.813Z,57.61
2022-08-23T06:38:46.802Z,55.41
2022-08-23T06:39:46.835Z,57.11
2022-08-23T06:40:46.807Z,57.91
2022-08-23T06:41:46.844Z,58.91
2022-08-23T06:42:46.753Z,58.51
2022-08-23T06:43:48.934Z,57.28
2022-08-23T06:44:46.993Z,56.31
2022-08-23T06:45:55.103Z,57.78
2022-08-23T06:46:47.767Z,56.98
2022-08-23T06:47:46.697Z,55.99
2022-08-23T06:48:46.726Z,57.58
2022-08-23T06:49:55.472Z,56.79
2022-08-23T06:50:47.791Z,57.01
2022-08-23T06:51:46.659Z,56.91
2022-08-23T06:52:46.649Z,56.21
2022-08-23T06:53:46.634Z,56.71
2022-08-23T06:54:46.646Z,56.51
2022-08-23T06:55:46.611Z,56.81
2022-08-23T06:56:46.597Z,58.44
2022-08-23T06:57:46.591Z,57.81
2022-08-23T06:58:46.574Z,57.34
2022-08-23T06:59:46.566Z,59.04
2022-08-23T07:00:46.650Z,57.51
2022-08-23T07:01:47.206Z,57.64
2022-08-23T07:02:50.057Z,57.01
2022-08-23T07:03:46.553Z,58.81
2022-08-23T07:04:46.507Z,57.11
2022-08-23T07:05:46.500Z,58.01
2022-08-23T07:06:46.513Z,57.31
2022-08-23T07:07:46.477Z,57.21
2022-08-23T07:08:46.488Z,57.91
2022-08-23T07:09:46.546Z,56.31
2022-08-23T07:10:46.447Z,58.78
2022-08-23T07:11:46.432Z,57.78
2022-08-23T07:12:46.418Z,56.98
2022-08-23T07:13:46.443Z,56.59
2022-08-23T07:14:46.400Z,57.78
2022-08-23T07:15:50.054Z,57.15
2022-08-23T07:16:46.373Z,56.26
2022-08-23T07:17:46.365Z,56.66
2022-08-23T07:18:46.351Z,56.06
2022-08-23T07:19:46.365Z,56.83
2022-08-23T07:20:46.331Z,56.30
2022-08-23T07:21:48.652Z,55.41
2022-08-23T07:22:46.308Z,56.38
2022-08-23T07:23:46.714Z,54.58
2022-08-23T07:24:46.309Z,54.88
2022-08-23T07:25:46.284Z,55.95
2022-08-23T07:26:46.275Z,54.98
2022-08-23T07:27:46.290Z,54.66
2022-08-23T07:28:46.242Z,54.86
2022-08-23T07:29:46.258Z,56.82
2022-08-23T07:30:46.227Z,53.04
2022-08-23T07:31:46.256Z,54.13
2022-08-23T07:32:46.193Z,54.13
2022-08-23T07:33:46.185Z,54.11
2022-08-23T07:34:46.196Z,53.98
2022-08-23T07:35:46.164Z,52.91
2022-08-23T07:36:46.161Z,54.68
2022-08-23T07:37:46.140Z,53.78
2022-08-23T07:38:46.149Z,53.09
2022-08-23T07:39:46.333Z,52.99
2022-08-23T07:40:46.106Z,54.28
2022-08-23T07:41:47.093Z,53.86
2022-08-23T07:42:46.106Z,54.65
2022-08-23T07:43:46.075Z,54.03
2022-08-23T07:44:46.335Z,52.34
2022-08-23T07:45:46.077Z,51.75
2022-08-23T07:46:46.199Z,52.72
2022-08-23T07:47:50.270Z,52.44
2022-08-23T07:48:54.675Z,52.54
2022-08-23T07:49:47.033Z,53.04
2022-08-23T07:50:54.634Z,52.44
2022-08-23T07:51:46.985Z,51.35
2022-08-23T07:52:45.976Z,52.07
2022-08-23T07:53:46.277Z,52.76
2022-08-23T07:54:48.390Z,52.64
2022-08-23T07:55:45.942Z,52.44
2022-08-23T07:56:45.934Z,53.11
2022-08-23T07:57:45.954Z,51.42
2022-08-23T07:58:45.909Z,52.91
2022-08-23T07:59:45.925Z,51.82
2022-08-23T08:00:45.907Z,52.49
2022-08-23T08:01:45.963Z,52.26
2022-08-23T08:02:45.977Z,52.47
2022-08-23T08:03:45.877Z,52.47
2022-08-23T08:04:45.838Z,52.73
2022-08-23T08:05:45.831Z,51.12
2022-08-23T08:06:45.820Z,51.92
2022-08-23T08:07:45.830Z,50.73
2022-08-23T08:08:45.794Z,50.36
2022-08-23T08:09:45.791Z,50.85
2022-08-23T08:10:45.808Z,51.92
2022-08-23T08:11:45.769Z,51.23
2022-08-23T08:12:45.774Z,51.70
2022-08-23T08:13:45.743Z,51.60
2022-08-23T08:14:45.752Z,51.28
2022-08-23T08:15:45.759Z,49.59
2022-08-23T08:16:45.709Z,50.16
2022-08-23T08:17:45.696Z,49.47
2022-08-23T08:18:45.685Z,48.38
2022-08-23T08:19:45.701Z,49.66
2022-08-23T08:20:45.663Z,47.39
2022-08-23T08:21:45.675Z,48.58
2022-08-23T08:22:48.517Z,49.15
2022-08-23T08:23:45.663Z,48.18
2022-08-23T08:24:45.622Z,49.96
2022-08-23T08:25:45.622Z,47.89
2022-08-23T08:26:45.629Z,48.75
2022-08-23T08:27:45.652Z,48.85
2022-08-23T08:28:45.581Z,48.14
2022-08-23T08:29:45.574Z,48.73
2022-08-23T08:30:45.555Z,46.48
2022-08-23T08:31:45.721Z,47.19
2022-08-23T08:32:47.420Z,46.50
2022-08-23T08:33:45.543Z,47.19
2022-08-23T08:34:45.574Z,47.69
2022-08-23T08:35:45.501Z,47.29
2022-08-23T08:36:46.488Z,48.46
2022-08-23T08:37:45.483Z,47.56
2022-08-23T08:38:48.155Z,46.67
2022-08-23T08:39:46.519Z,45.17
2022-08-23T08:40:45.447Z,44.78
2022-08-23T08:41:45.502Z,45.27
2022-08-23T08:42:45.427Z,45.49
2022-08-23T08:43:45.412Z,46.11
2022-08-23T08:44:45.424Z,46.88
2022-08-23T08:45:45.389Z,46.53
2022-08-23T08:46:46.406Z,46.53
2022-08-23T08:47:45.369Z,47.72
2022-08-23T08:48:45.477Z,47.60
2022-08-23T08:49:45.477Z,44.73
2022-08-23T08:50:45.337Z,47.00
2022-08-23T08:51:45.331Z,46.88
2022-08-23T08:52:45.313Z,44.93
2022-08-23T08:53:45.302Z,45.23
2022-08-23T08:54:48.141Z,45.52
2022-08-23T08:55:45.307Z,45.72
2022-08-23T08:56:45.269Z,44.71
2022-08-23T08:57:45.287Z,46.09
2022-08-23T08:58:45.254Z,44.71
2022-08-23T08:59:45.243Z,46.29
2022-08-23T09:00:46.378Z,43.62
2022-08-23T09:01:45.305Z,45.40
2022-08-23T09:02:45.615Z,46.41
2022-08-23T09:03:46.341Z,44.04
2022-08-23T09:04:45.191Z,44.16
2022-08-23T09:05:45.199Z,44.46
2022-08-23T09:06:45.167Z,45.35
2022-08-23T09:07:45.157Z,44.26
2022-08-23T09:08:45.172Z,44.75
2022-08-23T09:09:45.133Z,45.05
2022-08-23T09:10:45.121Z,45.32
2022-08-23T09:11:45.112Z,44.46
2022-08-23T09:12:45.098Z,45.94
2022-08-23T09:13:46.362Z,45.15
2022-08-23T09:14:45.081Z,44.85
2022-08-23T09:15:45.117Z,44.95
2022-08-23T09:16:45.054Z,45.20
2022-08-23T09:17:45.047Z,44.39
2022-08-23T09:18:45.034Z,45.28
2022-08-23T09:19:45.046Z,45.16
2022-08-23T09:20:45.013Z,44.35
2022-08-23T09:21:45.008Z,44.94
2022-08-23T09:22:45.015Z,44.84
2022-08-23T09:23:44.987Z,44.62
2022-08-23T09:24:44.970Z,44.33
2022-08-23T09:25:44.991Z,44.70
2022-08-23T09:26:44.949Z,44.31
2022-08-23T09:27:45.693Z,42.46
2022-08-23T09:28:44.925Z,44.06
2022-08-23T09:29:44.917Z,43.07
2022-08-23T09:30:44.906Z,44.62
2022-08-23T09:31:44.988Z,42.73
2022-08-23T09:32:44.885Z,42.63
2022-08-23T09:33:44.873Z,43.91
2022-08-23T09:34:44.862Z,42.26
2022-08-23T09:35:44.851Z,44.13
2022-08-23T09:36:44.867Z,44.70
2022-08-23T09:37:44.830Z,43.82
2022-08-23T09:38:44.822Z,43.05
2022-08-23T09:39:44.874Z,42.24
2022-08-23T09:40:44.794Z,43.42
2022-08-23T09:41:44.790Z,44.19
2022-08-23T09:42:44.779Z,43.38
2022-08-23T09:43:44.768Z,42.30
2022-08-23T09:44:44.776Z,42.40
2022-08-23T09:45:44.744Z,41.71
2022-08-23T09:46:44.734Z,43.68
2022-08-23T09:47:44.976Z,42.47
2022-08-23T09:48:44.717Z,42.86
2022-08-23T09:49:44.730Z,42.38
2022-08-23T09:50:44.691Z,43.16
2022-08-23T09:51:44.677Z,41.49
2022-08-23T09:52:44.695Z,42.40
2022-08-23T09:53:44.661Z,42.02
2022-08-23T09:54:47.483Z,41.83
2022-08-23T09:55:44.636Z,40.56
2022-08-23T09:56:44.625Z,43.23
2022-08-23T09:57:44.635Z,42.81
2022-08-23T09:58:44.603Z,41.53
2022-08-23T09:59:44.591Z,42.34
2022-08-23T10:00:44.585Z,42.54
2022-08-23T10:01:44.597Z,41.65
2022-08-23T10:02:44.587Z,41.38
2022-08-23T10:03:44.553Z,42.36
2022-08-23T10:04:44.622Z,40.88
2022-08-23T10:05:44.525Z,42.36
2022-08-23T10:06:44.525Z,41.91
2022-08-23T10:07:44.534Z,43.19
2022-08-23T10:08:44.497Z,43.24
2022-08-23T10:09:44.481Z,41.86
2022-08-23T10:10:46.289Z,42.46
2022-08-23T10:11:45.460Z,42.44
2022-08-23T10:12:44.472Z,41.08
2022-08-23T10:13:44.443Z,41.67
2022-08-23T10:14:44.431Z,42.26
2022-08-23T10:15:44.466Z,43.05
2022-08-23T10:16:44.410Z,43.03
2022-08-23T10:17:44.400Z,42.02
2022-08-23T10:18:44.406Z,40.25
2022-08-23T10:19:44.379Z,41.94
2022-08-23T10:20:44.409Z,42.61
2022-08-23T10:21:44.366Z,40.56
2022-08-23T10:22:44.379Z,41.96
2022-08-23T10:23:44.331Z,41.57
2022-08-23T10:24:44.343Z,42.16
2022-08-23T10:25:44.317Z,43.42
2022-08-23T10:26:44.341Z,41.85
2022-08-23T10:27:44.416Z,42.04
2022-08-23T10:28:44.300Z,42.71
2022-08-23T10:29:44.281Z,42.41
2022-08-23T10:30:44.316Z,40.05
2022-08-23T10:31:44.291Z,42.24
2022-08-23T10:32:44.280Z,41.75
2022-08-23T10:33:44.235Z,42.63
2022-08-23T10:34:48.459Z,39.87
2022-08-23T10:35:45.242Z,42.02
2022-08-23T10:36:44.202Z,42.41
2022-08-23T10:37:44.225Z,42.28
2022-08-23T10:38:44.193Z,40.80
2022-08-23T10:39:44.198Z,40.01
2022-08-23T10:40:44.184Z,39.05
2022-08-23T10:41:44.150Z,41.75
2022-08-23T10:42:44.146Z,40.16
2022-08-23T10:43:44.119Z,40.55
2022-08-23T10:44:44.129Z,40.72
2022-08-23T10:45:44.142Z,40.84
2022-08-23T10:46:44.208Z,40.47
2022-08-23T10:47:44.083Z,41.04
2022-08-23T10:48:44.077Z,41.31
2022-08-23T10:49:44.066Z,38.85
2022-08-23T10:50:44.062Z,40.03
2022-08-23T10:51:45.074Z,38.56
2022-08-23T10:52:44.041Z,39.76
2022-08-23T10:53:44.056Z,39.26
2022-08-23T10:54:44.013Z,39.07
2022-08-23T10:55:44.001Z,40.03
2022-08-23T10:56:48.882Z,39.76
2022-08-23T10:57:44.974Z,38.28
2022-08-23T10:58:43.991Z,39.86
2022-08-23T10:59:43.955Z,40.45
2022-08-23T11:00:43.952Z,40.82
2022-08-23T11:01:43.988Z,39.82
2022-08-23T11:02:43.973Z,39.82
2022-08-23T11:03:43.931Z,38.26
2022-08-23T11:04:43.910Z,39.84
2022-08-23T11:05:43.895Z,38.10
2022-08-23T11:06:43.878Z,39.58
2022-08-23T11:07:43.863Z,38.97
2022-08-23T11:08:47.444Z,37.81
2022-08-23T11:09:43.854Z,39.87
2022-08-23T11:10:56.552Z,39.56
2022-08-23T11:11:44.822Z,39.47
2022-08-23T11:12:43.826Z,40.03
2022-08-23T11:13:43.797Z,39.74
2022-08-23T11:14:43.822Z,38.07
2022-08-23T11:15:44.569Z,38.84
2022-08-23T11:16:43.777Z,39.92
2022-08-23T11:17:43.767Z,40.11
2022-08-23T11:18:43.750Z,39.32
2022-08-23T11:19:43.767Z,37.24
2022-08-23T11:20:43.733Z,37.46
2022-08-23T11:21:43.722Z,38.54
2022-08-23T11:22:43.709Z,37.85
2022-08-23T11:23:43.700Z,38.64
2022-08-23T11:24:43.946Z,38.52
2022-08-23T11:25:43.670Z,37.05
2022-08-23T11:26:43.671Z,37.44
2022-08-23T11:27:43.652Z,37.46
2022-08-23T11:28:43.650Z,37.26
2022-08-23T11:29:43.903Z,36.10
2022-08-23T11:30:43.632Z,37.18
2022-08-23T11:31:43.617Z,37.30
2022-08-23T11:32:43.602Z,37.12
2022-08-23T11:33:43.594Z,37.89
2022-08-23T11:34:43.609Z,38.68
2022-08-23T11:35:44.153Z,37.69
2022-08-23T11:36:43.571Z,38.20
2022-08-23T11:37:43.544Z,38.30
2022-08-23T11:38:43.538Z,38.97
2022-08-23T11:39:43.640Z,38.09
2022-08-23T11:40:43.523Z,37.97
2022-08-23T11:41:43.518Z,39.92
2022-08-23T11:42:43.500Z,39.13
2022-08-23T11:43:43.491Z,37.26
2022-08-23T11:44:43.474Z,37.26
2022-08-23T11:45:43.490Z,37.85
2022-08-23T11:46:43.457Z,37.28
2022-08-23T11:47:44.608Z,36.40
2022-08-23T11:48:43.840Z,37.30
2022-08-23T11:49:43.440Z,37.30
2022-08-23T11:50:43.417Z,36.30
2022-08-23T11:51:43.427Z,37.20
2022-08-23T11:52:43.516Z,37.89
2022-08-23T11:53:43.387Z,37.57
2022-08-23T11:54:43.377Z,37.67
2022-08-23T11:55:43.366Z,36.41
2022-08-23T11:56:46.276Z,37.57
2022-08-23T11:57:43.334Z,38.26
2022-08-23T11:58:43.341Z,37.48
2022-08-23T11:59:43.374Z,37.57
2022-08-23T12:00:43.305Z,37.79
2022-08-23T12:01:43.318Z,37.79
2022-08-23T12:02:43.869Z,37.49
2022-08-23T12:03:43.490Z,37.61
2022-08-23T12:04:43.261Z,37.24
2022-08-23T12:05:43.256Z,38.40
2022-08-23T12:06:43.246Z,38.60
2022-08-23T12:07:44.249Z,39.48
2022-08-23T12:08:43.226Z,38.97
2022-08-23T12:09:43.234Z,38.76
2022-08-23T12:10:43.206Z,38.26
2022-08-23T12:11:43.180Z,38.66
2022-08-23T12:12:47.116Z,36.47
2022-08-23T12:13:43.177Z,37.95
2022-08-23T12:14:43.147Z,37.76
2022-08-23T12:15:43.163Z,37.95
2022-08-23T12:16:45.136Z,37.46
2022-08-23T12:17:44.159Z,38.17
2022-08-23T12:18:43.097Z,38.56
2022-08-23T12:19:43.087Z,38.17
2022-08-23T12:20:43.265Z,36.59
2022-08-23T12:21:44.066Z,37.87
2022-08-23T12:22:43.053Z,37.77
2022-08-23T12:23:43.040Z,40.03
2022-08-23T12:24:43.055Z,38.56
2022-08-23T12:25:43.019Z,38.24
2022-08-23T12:26:43.025Z,38.24
2022-08-23T12:27:42.999Z,39.13
2022-08-23T12:28:42.992Z,37.95
2022-08-23T12:29:43.303Z,39.92
2022-08-23T12:30:44.417Z,37.85
2022-08-23T12:31:43.034Z,38.17
2022-08-23T12:32:42.948Z,37.69
2022-08-23T12:33:42.933Z,37.40
2022-08-23T12:34:42.935Z,39.95
2022-08-23T12:35:42.938Z,39.56
2022-08-23T12:36:42.912Z,38.38
2022-08-23T12:37:42.891Z,38.48
2022-08-23T12:38:42.884Z,39.47
2022-08-23T12:39:42.931Z,38.78
2022-08-23T12:40:42.900Z,38.97
2022-08-23T12:41:42.860Z,37.61
2022-08-23T12:42:42.838Z,39.70
2022-08-23T12:43:42.828Z,39.60
2022-08-23T12:44:42.840Z,40.00
2022-08-23T12:45:42.815Z,39.87
2022-08-23T12:46:42.949Z,39.58
2022-08-23T12:47:43.174Z,40.08
2022-08-23T12:48:42.901Z,39.37
2022-08-23T12:49:42.783Z,38.97
2022-08-23T12:50:42.776Z,38.28
2022-08-23T12:51:42.739Z,39.76
2022-08-23T12:52:42.731Z,38.10
2022-08-23T12:53:44.982Z,40.09